createdAt,value
2018-08-09T00:00:25.600Z,89.52
2018-08-09T00:02:54.221Z,89.41
2018-08-09T00:05:22.989Z,87.44
2018-08-09T00:07:51.582Z,87.76
2018-08-09T00:10:20.164Z,87.57
2018-08-09T00:12:48.791Z,87.66
2018-08-09T00:15:17.320Z,87.59
2018-08-09T00:17:46.921Z,86.84
2018-08-09T00:20:15.465Z,86.61
2018-08-09T00:22:44.055Z,86.22
2018-08-09T00:25:12.590Z,87.54
2018-08-09T00:27:41.158Z,88.74
2018-08-09T00:30:09.702Z,89.70
2018-08-09T00:32:38.361Z,90.81
2018-08-09T00:35:06.997Z,91.48
2018-08-09T00:37:42.260Z,90.62
2018-08-09T00:40:10.815Z,91.11
2018-08-09T00:42:39.412Z,91.65
2018-08-09T00:45:08.004Z,89.20
2018-08-09T00:47:36.619Z,89.06
2018-08-09T00:50:05.784Z,89.55
2018-08-09T00:52:34.365Z,88.20
2018-08-09T00:55:02.973Z,88.09
2018-08-09T00:57:31.527Z,89.17
2018-08-09T01:00:00.354Z,89.98
2018-08-09T01:02:28.946Z,89.00
2018-08-09T01:04:57.560Z,86.87
2018-08-09T01:07:26.136Z,86.91
2018-08-09T01:09:54.752Z,86.14
2018-08-09T01:12:23.316Z,85.33
2018-08-09T01:14:51.901Z,85.38
2018-08-09T01:17:20.462Z,85.84
2018-08-09T01:19:49.059Z,86.27
2018-08-09T01:22:17.675Z,88.07
2018-08-09T01:24:46.304Z,86.23
2018-08-09T01:27:14.854Z,85.21
2018-08-09T01:29:43.435Z,85.30
2018-08-09T01:32:11.980Z,85.06
2018-08-09T01:34:40.564Z,85.08
2018-08-09T01:37:09.140Z,86.48
2018-08-09T01:39:37.735Z,88.34
2018-08-09T01:42:17.440Z,90.29
2018-08-09T01:44:46.025Z,88.55
2018-08-09T01:47:14.600Z,87.62
2018-08-09T01:49:43.202Z,88.22
2018-08-09T01:52:11.780Z,89.94
2018-08-09T01:54:40.365Z,89.21
2018-08-09T01:57:08.953Z,88.03
2018-08-09T01:59:37.879Z,88.37
2018-08-09T02:02:06.534Z,87.20
2018-08-09T02:04:35.143Z,89.53
2018-08-09T02:07:03.649Z,89.41
2018-08-09T02:09:33.781Z,89.28
2018-08-09T02:12:03.243Z,88.54
2018-08-09T02:14:31.845Z,88.11
2018-08-09T02:17:00.620Z,89.70
2018-08-09T02:19:29.197Z,89.94
2018-08-09T02:21:57.756Z,89.53
2018-08-09T02:24:26.361Z,90.76
2018-08-09T02:26:54.896Z,92.91
2018-08-09T02:29:23.465Z,93.08
2018-08-09T02:31:51.985Z,92.96
2018-08-09T02:34:20.566Z,91.38
2018-08-09T02:36:49.088Z,87.97
2018-08-09T02:39:17.840Z,86.85
2018-08-09T02:41:46.406Z,88.84
2018-08-09T02:44:14.929Z,88.92
2018-08-09T02:46:43.566Z,93.54
2018-08-09T02:49:12.477Z,91.57
2018-08-09T02:51:41.077Z,90.98
2018-08-09T02:54:09.661Z,88.29
2018-08-09T02:56:38.241Z,88.38
2018-08-09T02:59:06.837Z,86.82
2018-08-09T03:01:35.461Z,86.83
2018-08-09T03:04:04.065Z,86.71
2018-08-09T03:06:32.644Z,86.77
2018-08-09T03:09:01.206Z,85.89
2018-08-09T03:11:29.836Z,87.42
2018-08-09T03:13:58.512Z,86.81
2018-08-09T03:16:27.124Z,85.00
2018-08-09T03:18:55.721Z,84.63
2018-08-09T03:21:24.328Z,85.35
2018-08-09T03:23:52.896Z,87.01
2018-08-09T03:26:21.512Z,88.27
2018-08-09T03:28:50.087Z,87.02
2018-08-09T03:31:18.686Z,87.49
2018-08-09T03:33:48.229Z,87.45
2018-08-09T03:36:16.858Z,87.27
2018-08-09T03:38:45.411Z,86.86
2018-08-09T03:41:14.001Z,88.28
2018-08-09T03:43:42.565Z,88.07
2018-08-09T03:46:11.163Z,87.29
2018-08-09T03:48:39.689Z,87.83
2018-08-09T03:51:08.274Z,87.71
2018-08-09T03:53:36.817Z,89.48
2018-08-09T03:56:05.752Z,87.17
2018-08-09T03:58:34.286Z,88.20
2018-08-09T04:01:02.832Z,88.95
2018-08-09T04:03:31.366Z,84.53
2018-08-09T04:05:59.925Z,86.42
2018-08-09T04:08:28.456Z,86.58
2018-08-09T04:10:57.007Z,86.48
2018-08-09T04:13:25.528Z,88.84
2018-08-09T04:15:54.081Z,89.32
2018-08-09T04:18:22.625Z,90.52
2018-08-09T04:20:51.141Z,88.66
2018-08-09T04:23:19.742Z,86.58
2018-08-09T04:25:48.392Z,85.84
2018-08-09T04:28:16.945Z,85.96
2018-08-09T04:30:45.470Z,85.82
2018-08-09T04:33:14.020Z,86.13
2018-08-09T04:35:42.570Z,86.01
2018-08-09T04:38:11.153Z,87.23
2018-08-09T04:40:39.677Z,87.14
2018-08-09T04:43:08.241Z,86.95
2018-08-09T04:45:36.781Z,86.05
2018-08-09T04:48:05.625Z,87.89
2018-08-09T04:50:34.316Z,87.14
2018-08-09T04:53:02.865Z,89.37
2018-08-09T04:55:31.409Z,88.96
2018-08-09T04:58:00.282Z,89.14
2018-08-09T05:00:29.340Z,87.20
2018-08-09T05:02:57.893Z,88.42
2018-08-09T05:05:26.432Z,88.15
2018-08-09T05:07:55.059Z,88.66
2018-08-09T05:10:26.660Z,87.98
2018-08-09T05:12:55.788Z,86.94
2018-08-09T05:15:24.325Z,87.67
2018-08-09T05:17:52.920Z,85.68
2018-08-09T05:20:21.485Z,84.59
2018-08-09T05:22:50.060Z,85.17
2018-08-09T05:25:18.602Z,84.60
2018-08-09T05:27:47.200Z,84.29
2018-08-09T05:30:15.741Z,86.12
2018-08-09T05:32:44.324Z,86.47
2018-08-09T05:35:12.877Z,85.73
2018-08-09T05:37:41.437Z,85.97
2018-08-09T05:40:10.000Z,87.32
2018-08-09T05:42:38.579Z,88.13
2018-08-09T05:45:07.131Z,87.93
2018-08-09T05:47:35.965Z,88.51
2018-08-09T05:50:05.045Z,88.98
2018-08-09T05:52:33.665Z,86.82
2018-08-09T05:55:02.398Z,84.14
2018-08-09T05:57:30.973Z,82.28
2018-08-09T05:59:59.596Z,81.92
2018-08-09T06:02:28.214Z,81.95
2018-08-09T06:04:56.783Z,81.05
2018-08-09T06:07:25.413Z,80.43
2018-08-09T06:09:54.049Z,79.51
2018-08-09T06:12:22.665Z,79.79
2018-08-09T06:14:54.958Z,78.41
2018-08-09T06:17:23.754Z,78.50
2018-08-09T06:19:52.312Z,79.12
2018-08-09T06:22:20.924Z,77.38
2018-08-09T06:24:49.544Z,77.92
2018-08-09T06:27:18.832Z,77.61
2018-08-09T06:29:47.469Z,77.44
2018-08-09T06:32:16.045Z,77.31
2018-08-09T06:34:44.644Z,77.99
2018-08-09T06:37:13.232Z,77.08
2018-08-09T06:39:41.852Z,75.75
2018-08-09T06:42:10.425Z,75.19
2018-08-09T06:44:39.020Z,75.48
2018-08-09T06:47:07.649Z,76.81
2018-08-09T06:49:36.230Z,75.37
2018-08-09T06:52:04.840Z,74.69
2018-08-09T06:54:33.442Z,74.42
2018-08-09T06:57:02.002Z,74.76
2018-08-09T06:59:30.688Z,74.55
2018-08-09T07:01:59.251Z,73.29
2018-08-09T07:04:27.847Z,73.25
2018-08-09T07:06:56.459Z,73.92
2018-08-09T07:09:25.105Z,73.90
2018-08-09T07:11:53.673Z,72.93
2018-08-09T07:14:22.272Z,73.09
2018-08-09T07:16:51.063Z,73.58
2018-08-09T07:19:19.684Z,72.65
2018-08-09T07:21:49.056Z,72.69
2018-08-09T07:24:17.667Z,71.24
2018-08-09T07:26:51.620Z,70.43
2018-08-09T07:29:20.659Z,69.25
2018-08-09T07:31:49.230Z,68.10
2018-08-09T07:34:19.224Z,68.90
2018-08-09T07:36:47.796Z,67.15
2018-08-09T07:39:16.516Z,67.17
2018-08-09T07:41:45.052Z,65.64
2018-08-09T07:44:13.635Z,67.45
2018-08-09T07:46:42.202Z,66.90
2018-08-09T07:49:10.751Z,66.83
2018-08-09T07:51:39.290Z,67.00
2018-08-09T07:54:07.901Z,66.49
2018-08-09T07:56:36.469Z,67.29
2018-08-09T07:59:05.058Z,67.66
2018-08-09T08:01:33.651Z,67.35
2018-08-09T08:04:02.204Z,67.28
2018-08-09T08:06:30.716Z,66.00
2018-08-09T08:08:59.292Z,65.26
2018-08-09T08:11:27.815Z,65.67
2018-08-09T08:13:56.380Z,66.79
2018-08-09T08:16:24.968Z,65.58
2018-08-09T08:18:53.566Z,64.91
2018-08-09T08:21:22.404Z,65.33
2018-08-09T08:23:50.964Z,65.48
2018-08-09T08:26:19.469Z,64.94
2018-08-09T08:28:48.013Z,64.94
2018-08-09T08:31:19.539Z,65.70
2018-08-09T08:33:48.113Z,63.84
2018-08-09T08:36:17.241Z,64.18
2018-08-09T08:38:46.161Z,64.26
2018-08-09T08:41:15.129Z,63.11
2018-08-09T08:43:43.676Z,63.27
2018-08-09T08:46:12.289Z,63.69
2018-08-09T08:48:40.856Z,62.66
2018-08-09T08:51:09.659Z,62.29
2018-08-09T08:53:38.189Z,62.92
2018-08-09T08:56:06.957Z,62.99
2018-08-09T08:58:35.501Z,62.44
2018-08-09T09:01:04.158Z,60.98
2018-08-09T09:03:32.679Z,62.63
2018-08-09T09:06:01.248Z,61.45
2018-08-09T09:08:30.023Z,60.41
2018-08-09T09:10:59.235Z,60.69
2018-08-09T09:13:27.781Z,60.96
2018-08-09T09:15:56.357Z,60.36
2018-08-09T09:18:24.906Z,60.12
2018-08-09T09:20:53.475Z,60.44
2018-08-09T09:23:22.005Z,60.16
2018-08-09T09:25:51.185Z,59.90
2018-08-09T09:28:19.727Z,60.50
2018-08-09T09:30:48.280Z,60.56
2018-08-09T09:33:16.813Z,60.25
2018-08-09T09:35:45.360Z,59.72
2018-08-09T09:38:13.893Z,60.32
2018-08-09T09:40:59.741Z,60.99
2018-08-09T09:43:28.276Z,60.43
2018-08-09T09:45:56.836Z,60.02
2018-08-09T09:48:25.451Z,59.92
2018-08-09T09:50:54.088Z,59.45
2018-08-09T09:53:22.680Z,60.75
2018-08-09T09:55:51.322Z,59.41
2018-08-09T09:58:19.880Z,59.97
2018-08-09T10:00:53.914Z,57.56
2018-08-09T10:03:22.470Z,57.74
2018-08-09T10:05:51.397Z,58.71
2018-08-09T10:08:20.194Z,58.91
2018-08-09T10:10:48.870Z,58.03
2018-08-09T10:13:17.499Z,58.18
2018-08-09T10:15:46.097Z,58.22
2018-08-09T10:18:14.657Z,58.34
2018-08-09T10:20:43.429Z,57.95
2018-08-09T10:23:13.173Z,57.66
2018-08-09T10:25:41.904Z,58.19
2018-08-09T10:28:12.824Z,57.56
2018-08-09T10:30:41.500Z,56.74
2018-08-09T10:33:10.089Z,57.08
2018-08-09T10:35:38.677Z,57.33
2018-08-09T10:38:07.334Z,56.62
2018-08-09T10:40:40.156Z,56.78
2018-08-09T10:43:08.947Z,57.06
2018-08-09T10:45:37.764Z,57.52
2018-08-09T10:48:10.093Z,56.74
2018-08-09T10:50:38.676Z,57.40
2018-08-09T10:53:07.301Z,55.93
2018-08-09T10:55:35.901Z,54.83
2018-08-09T10:58:05.627Z,56.05
2018-08-09T11:00:34.181Z,56.24
2018-08-09T11:03:02.765Z,57.17
2018-08-09T11:05:31.361Z,65.29
2018-08-09T11:07:59.993Z,100.00
2018-08-09T11:10:31.600Z,100.00
2018-08-09T11:13:01.300Z,99.39
2018-08-09T11:15:32.688Z,95.04
2018-08-09T11:18:01.305Z,96.62
2018-08-09T11:20:30.023Z,96.57
2018-08-09T11:22:58.867Z,99.75
2018-08-09T11:25:27.425Z,100.00
2018-08-09T11:27:56.014Z,98.99
2018-08-09T11:30:24.866Z,97.56
2018-08-09T11:32:53.428Z,98.03
2018-08-09T11:35:21.953Z,98.18
2018-08-09T11:37:50.520Z,95.92
2018-08-09T11:40:19.031Z,95.24
2018-08-09T11:42:47.557Z,96.30
2018-08-09T11:45:22.072Z,95.09
2018-08-09T11:47:58.844Z,89.67
2018-08-09T11:50:32.502Z,89.06
2018-08-09T11:53:09.024Z,93.00
2018-08-09T11:55:39.998Z,92.11
2018-08-09T11:58:10.102Z,92.27
2018-08-09T12:00:38.631Z,93.64
2018-08-09T12:03:11.571Z,94.85
2018-08-09T12:05:40.069Z,87.96
2018-08-09T12:08:08.601Z,87.37
2018-08-09T12:10:37.101Z,87.59
2018-08-09T12:13:05.640Z,84.92
2018-08-09T12:15:34.164Z,84.62
2018-08-09T12:18:02.723Z,82.18
2018-08-09T12:20:31.302Z,82.07
2018-08-09T12:22:59.863Z,82.80
2018-08-09T12:25:28.388Z,83.39
2018-08-09T12:27:57.167Z,83.60
2018-08-09T12:30:26.104Z,81.61
2018-08-09T12:32:55.118Z,82.90
2018-08-09T12:35:23.672Z,84.92
2018-08-09T12:37:52.229Z,84.11
2018-08-09T12:40:20.736Z,83.66
2018-08-09T12:42:49.320Z,85.51
2018-08-09T12:45:17.938Z,84.68
2018-08-09T12:47:46.510Z,86.56
2018-08-09T12:50:15.309Z,84.02
2018-08-09T12:52:44.871Z,85.18
2018-08-09T12:55:14.408Z,84.07
2018-08-09T12:57:44.490Z,85.67
2018-08-09T13:00:15.638Z,84.60
2018-08-09T13:02:44.259Z,84.93
2018-08-09T13:05:13.397Z,83.75
2018-08-09T13:07:42.313Z,81.65
2018-08-09T13:10:12.418Z,83.08
2018-08-09T13:12:41.605Z,83.79
2018-08-09T13:15:12.442Z,83.67
2018-08-09T13:17:41.866Z,83.25
2018-08-09T13:20:13.329Z,83.73
2018-08-09T13:22:42.362Z,83.66
2018-08-09T13:25:11.151Z,80.49
2018-08-09T13:27:39.909Z,79.88
2018-08-09T13:30:11.619Z,78.89
2018-08-09T13:32:40.401Z,81.46
2018-08-09T13:35:09.413Z,80.73
2018-08-09T13:37:38.032Z,79.44
2018-08-09T13:40:08.129Z,77.81
2018-08-09T13:42:37.589Z,78.91
2018-08-09T13:45:10.386Z,78.80
2018-08-09T13:47:39.570Z,76.58
2018-08-09T13:50:09.093Z,77.62
2018-08-09T13:52:38.005Z,77.12
2018-08-09T13:55:06.912Z,76.67
2018-08-09T13:57:35.564Z,75.95
2018-08-09T14:00:05.672Z,75.20
2018-08-09T14:02:35.641Z,77.22
2018-08-09T14:05:05.149Z,76.62
2018-08-09T14:07:33.788Z,73.33
2018-08-09T14:10:02.403Z,73.75
2018-08-09T14:12:30.990Z,72.89
2018-08-09T14:14:59.749Z,72.08
2018-08-09T14:17:28.892Z,71.71
2018-08-09T14:19:57.559Z,71.69
2018-08-09T14:22:26.108Z,70.86
2018-08-09T14:24:54.737Z,71.10
2018-08-09T14:27:23.265Z,70.33
2018-08-09T14:29:51.866Z,69.66
2018-08-09T14:32:20.427Z,70.92
2018-08-09T14:34:49.306Z,71.65
2018-08-09T14:37:17.904Z,71.69
2018-08-09T14:39:46.497Z,71.83
2018-08-09T14:42:15.905Z,72.75
2018-08-09T14:44:44.499Z,70.76
2018-08-09T14:47:19.303Z,70.88
2018-08-09T14:49:48.064Z,68.24
2018-08-09T14:52:17.657Z,68.26
2018-08-09T14:54:52.105Z,68.07
2018-08-09T14:57:20.771Z,69.01
2018-08-09T14:59:49.355Z,69.35
2018-08-09T15:02:22.031Z,69.00
2018-08-09T15:04:50.584Z,70.07
2018-08-09T15:07:19.134Z,70.70
2018-08-09T15:09:47.712Z,70.26
2018-08-09T15:12:18.610Z,71.19
2018-08-09T15:14:47.242Z,71.26
2018-08-09T15:17:15.753Z,70.17
2018-08-09T15:19:44.321Z,69.47
2018-08-09T15:22:12.881Z,69.86
2018-08-09T15:24:41.468Z,69.61
2018-08-09T15:27:10.040Z,69.50
2018-08-09T15:29:38.593Z,70.77
2018-08-09T15:32:09.048Z,71.76
2018-08-09T15:34:38.202Z,72.94
2018-08-09T15:37:13.800Z,71.57
2018-08-09T15:39:43.091Z,71.82
2018-08-09T15:42:11.628Z,72.44
2018-08-09T15:44:45.537Z,71.10
2018-08-09T15:47:15.771Z,71.30
2018-08-09T15:49:50.097Z,71.25
2018-08-09T15:52:18.832Z,70.69
2018-08-09T15:54:47.405Z,70.92
2018-08-09T15:57:16.304Z,70.60
2018-08-09T15:59:44.928Z,70.17
2018-08-09T16:02:13.556Z,69.12
2018-08-09T16:04:42.109Z,67.36
2018-08-09T16:07:10.708Z,67.70
2018-08-09T16:09:39.285Z,67.80
2018-08-09T16:12:07.861Z,67.65
2018-08-09T16:14:36.412Z,67.37
2018-08-09T16:17:05.000Z,68.46
2018-08-09T16:19:33.573Z,66.97
2018-08-09T16:22:02.468Z,67.42
2018-08-09T16:24:35.975Z,67.18
2018-08-09T16:27:10.712Z,68.38
2018-08-09T16:29:46.649Z,67.12
2018-08-09T16:32:19.340Z,67.57
2018-08-09T16:34:49.585Z,67.31
2018-08-09T16:37:19.635Z,68.82
2018-08-09T16:39:50.260Z,68.94
2018-08-09T16:42:20.037Z,69.36
2018-08-09T16:44:55.355Z,70.40
2018-08-09T16:47:31.025Z,68.66
2018-08-09T16:50:03.331Z,69.50
2018-08-09T16:52:33.977Z,69.60
2018-08-09T16:55:05.588Z,69.50
2018-08-09T16:57:34.962Z,68.55
2018-08-09T17:00:07.739Z,70.00
2018-08-09T17:02:36.613Z,69.50
2018-08-09T17:05:10.441Z,69.95
2018-08-09T17:07:41.271Z,71.16
2018-08-09T17:10:15.305Z,70.87
2018-08-09T17:12:43.956Z,70.90
2018-08-09T17:15:18.713Z,70.49
2018-08-09T17:17:49.448Z,70.66
2018-08-09T17:20:30.368Z,71.59
2018-08-09T17:23:06.921Z,71.42
2018-08-09T17:25:39.654Z,69.75
2018-08-09T17:28:10.006Z,69.41
2018-08-09T17:30:44.501Z,68.44
2018-08-09T17:33:17.783Z,68.90
2018-08-09T17:35:56.334Z,68.70
2018-08-09T17:38:27.016Z,69.75
2018-08-09T17:41:00.588Z,69.24
2018-08-09T17:43:30.644Z,69.24
2018-08-09T17:46:06.115Z,69.47
2018-08-09T17:48:36.713Z,70.54
2018-08-09T17:51:09.203Z,70.50
2018-08-09T17:53:44.011Z,70.56
2018-08-09T17:56:17.746Z,71.59
2018-08-09T17:58:50.715Z,71.11
2018-08-09T18:01:22.941Z,70.62
2018-08-09T18:03:57.326Z,71.17
2018-08-09T18:06:32.523Z,71.84
2018-08-09T18:09:02.444Z,71.16
2018-08-09T18:11:34.114Z,69.47
2018-08-09T18:14:08.841Z,68.22
2018-08-09T18:16:44.170Z,68.34
2018-08-09T18:19:15.595Z,68.01
2018-08-09T18:21:49.004Z,68.03
2018-08-09T18:27:07.685Z,70.95
2018-08-09T18:29:40.194Z,70.88
2018-08-09T18:32:16.560Z,70.60
2018-08-09T18:34:55.419Z,70.88
2018-08-09T18:37:28.828Z,71.53
2018-08-09T18:42:57.728Z,72.20
2018-08-09T18:45:26.577Z,72.48
2018-08-09T18:47:55.267Z,72.99
2018-08-09T18:50:27.187Z,73.33
2018-08-09T18:52:55.915Z,74.47
2018-08-09T18:55:25.994Z,74.30
2018-08-09T18:57:54.693Z,75.67
2018-08-09T19:00:26.952Z,75.13
2018-08-09T19:02:55.771Z,74.80
2018-08-09T19:05:24.636Z,75.29
2018-08-09T19:07:53.688Z,75.95
2018-08-09T19:10:28.273Z,74.83
2018-08-09T19:12:56.933Z,75.62
2018-08-09T19:15:25.739Z,75.63
2018-08-09T19:17:54.529Z,77.01
2018-08-09T19:20:28.770Z,76.74
2018-08-09T19:23:01.090Z,77.23
2018-08-09T19:25:30.454Z,77.68
2018-08-09T19:27:59.841Z,78.82
2018-08-09T19:30:32.005Z,78.75
2018-08-09T19:33:02.603Z,78.37
2018-08-09T19:35:32.821Z,77.77
2018-08-09T19:38:04.918Z,78.09
2018-08-09T19:40:33.849Z,76.76
2018-08-09T19:43:02.550Z,77.06
2018-08-09T19:45:32.205Z,76.55
2018-08-09T19:48:00.863Z,75.32
2018-08-09T19:50:29.448Z,75.48
2018-08-09T19:52:58.067Z,75.36
2018-08-09T19:55:27.897Z,75.85
2018-08-09T19:57:56.455Z,75.38
2018-08-09T20:00:26.953Z,76.19
2018-08-09T20:02:55.548Z,75.74
2018-08-09T20:05:24.636Z,75.32
2018-08-09T20:07:53.222Z,75.78
2018-08-09T20:10:22.045Z,75.77
2018-08-09T20:12:50.601Z,76.06
2018-08-09T20:15:20.737Z,75.92
2018-08-09T20:17:49.397Z,75.54
2018-08-09T20:20:19.649Z,76.28
2018-08-09T20:22:48.181Z,75.99
2018-08-09T20:25:16.936Z,76.84
2018-08-09T20:27:46.185Z,77.06
2018-08-09T20:30:15.999Z,76.97
2018-08-09T20:32:45.203Z,77.46
2018-08-09T20:35:17.198Z,77.56
2018-08-09T20:37:47.648Z,78.13
2018-08-09T20:40:19.456Z,78.09
2018-08-09T20:42:52.516Z,78.47
2018-08-09T20:45:24.598Z,79.15
2018-08-09T20:47:53.559Z,78.48
2018-08-09T20:50:24.052Z,78.52
2018-08-09T20:52:54.558Z,79.26
2018-08-09T20:55:26.540Z,79.04
2018-08-09T20:58:00.737Z,79.20
2018-08-09T21:00:35.641Z,79.43
2018-08-09T21:03:06.686Z,80.00
2018-08-09T21:05:38.987Z,80.35
2018-08-09T21:08:12.669Z,80.97
2018-08-09T21:10:41.509Z,79.74
2018-08-09T21:13:10.068Z,80.38
2018-08-09T21:15:38.819Z,80.19
2018-08-09T21:18:07.744Z,80.32
2018-08-09T21:20:36.358Z,80.60
2018-08-09T21:23:05.617Z,80.28
2018-08-09T21:25:34.205Z,81.78
2018-08-09T21:28:02.838Z,80.48
2018-08-09T21:30:31.424Z,81.42
2018-08-09T21:33:00.014Z,79.68
2018-08-09T21:35:37.067Z,79.38
2018-08-09T21:38:05.848Z,79.19
2018-08-09T21:40:36.674Z,78.76
2018-08-09T21:43:07.121Z,78.27
2018-08-09T21:45:35.850Z,78.82
2018-08-09T21:48:08.132Z,78.56
2018-08-09T21:50:37.540Z,79.30
2018-08-09T21:53:10.385Z,79.62
2018-08-09T21:55:42.944Z,79.61
2018-08-09T21:58:14.928Z,80.37
2018-08-09T22:01:08.042Z,80.35
2018-08-09T22:03:40.067Z,80.77
2018-08-09T22:06:14.156Z,81.35
2018-08-09T22:08:49.538Z,80.57
2018-08-09T22:11:26.221Z,80.92
2018-08-09T22:14:02.590Z,81.92
2018-08-09T22:16:38.986Z,81.42
2018-08-09T22:19:13.794Z,80.83
2018-08-09T22:21:47.720Z,82.12
2018-08-09T22:24:16.264Z,81.86
2018-08-09T22:26:46.355Z,82.94
2018-08-09T22:29:20.084Z,81.71
2018-08-09T22:31:50.264Z,80.63
2018-08-09T22:34:23.310Z,80.56
2018-08-09T22:36:53.751Z,81.36
2018-08-09T22:39:25.500Z,81.18
2018-08-09T22:41:54.041Z,81.03
2018-08-09T22:44:24.686Z,81.32
2018-08-09T22:46:56.115Z,82.36
2018-08-09T22:49:29.703Z,81.70
2018-08-09T22:51:58.882Z,81.66
2018-08-09T22:54:32.455Z,82.66
2018-08-09T22:57:01.145Z,81.32
2018-08-09T22:59:29.689Z,81.41
2018-08-09T23:01:58.733Z,81.48
2018-08-09T23:04:27.846Z,81.97
2018-08-09T23:07:01.064Z,82.40
2018-08-09T23:09:34.593Z,82.79
2018-08-09T23:12:03.471Z,81.92
2018-08-09T23:14:32.282Z,82.49
2018-08-09T23:17:00.884Z,83.41
2018-08-09T23:19:36.097Z,83.39
2018-08-09T23:22:05.188Z,83.30
2018-08-09T23:24:33.700Z,82.83
2018-08-09T23:27:02.260Z,82.12
2018-08-09T23:29:30.824Z,82.37
2018-08-09T23:31:59.463Z,80.97
2018-08-09T23:34:28.060Z,80.18
2018-08-09T23:36:56.624Z,79.96
2018-08-09T23:39:25.209Z,79.78
2018-08-09T23:41:53.752Z,79.30
2018-08-09T23:44:23.218Z,80.60
2018-08-09T23:46:51.924Z,79.46
2018-08-09T23:49:20.513Z,79.48
2018-08-09T23:51:49.086Z,80.31
2018-08-09T23:54:17.668Z,80.08
2018-08-09T23:56:46.228Z,81.96
2018-08-09T23:59:14.805Z,83.23
